sensor_id;sensor_type;location;lat;lon;timestamp;P1;durP1;ratioP1;P2;durP2;ratioP2
19675;SDS011;39539;52.202;9.876;2023-10-13T00:01:53;10.40;;;9.60;;
19675;SDS011;39539;52.202;9.876;2023-10-13T00:04:19;10.38;;;9.43;;
19675;SDS011;39539;52.202;9.876;2023-10-13T00:06:50;10.98;;;10.20;;
19675;SDS011;39539;52.202;9.876;2023-10-13T00:09:16;10.00;;;9.27;;
19675;SDS011;39539;52.202;9.876;2023-10-13T00:11:42;11.40;;;10.35;;
19675;SDS011;39539;52.202;9.876;2023-10-13T00:14:11;11.15;;;10.15;;
19675;SDS011;39539;52.202;9.876;2023-10-13T00:16:41;11.88;;;10.98;;
19675;SDS011;39539;52.202;9.876;2023-10-13T00:19:32;12.00;;;11.20;;
19675;SDS011;39539;52.202;9.876;2023-10-13T00:22:12;11.63;;;10.73;;
19675;SDS011;39539;52.202;9.876;2023-10-13T00:24:42;12.70;;;11.63;;
19675;SDS011;39539;52.202;9.876;2023-10-13T00:27:12;14.63;;;13.15;;
19675;SDS011;39539;52.202;9.876;2023-10-13T00:29:59;14.00;;;12.80;;
19675;SDS011;39539;52.202;9.876;2023-10-13T00:32:40;15.23;;;13.77;;
19675;SDS011;39539;52.202;9.876;2023-10-13T00:35:10;14.10;;;13.05;;
19675;SDS011;39539;52.202;9.876;2023-10-13T00:37:57;14.57;;;13.38;;
19675;SDS011;39539;52.202;9.876;2023-10-13T00:40:29;14.45;;;13.15;;
19675;SDS011;39539;52.202;9.876;2023-10-13T00:42:56;14.50;;;13.02;;
19675;SDS011;39539;52.202;9.876;2023-10-13T00:45:43;14.30;;;13.10;;
19675;SDS011;39539;52.202;9.876;2023-10-13T00:48:28;14.18;;;13.10;;
19675;SDS011;39539;52.202;9.876;2023-10-13T00:50:57;15.48;;;14.32;;
19675;SDS011;39539;52.202;9.876;2023-10-13T00:53:27;16.27;;;14.93;;
19675;SDS011;39539;52.202;9.876;2023-10-13T00:55:54;15.77;;;14.57;;
19675;SDS011;39539;52.202;9.876;2023-10-13T00:58:21;15.85;;;14.65;;
19675;SDS011;39539;52.202;9.876;2023-10-13T01:00:48;16.77;;;15.35;;
19675;SDS011;39539;52.202;9.876;2023-10-13T01:03:21;16.35;;;14.95;;
19675;SDS011;39539;52.202;9.876;2023-10-13T01:05:51;16.08;;;14.73;;
19675;SDS011;39539;52.202;9.876;2023-10-13T01:08:19;15.00;;;13.88;;
19675;SDS011;39539;52.202;9.876;2023-10-13T01:10:57;16.48;;;15.07;;
19675;SDS011;39539;52.202;9.876;2023-10-13T01:13:23;15.05;;;13.80;;
19675;SDS011;39539;52.202;9.876;2023-10-13T01:15:49;16.48;;;15.15;;
19675;SDS011;39539;52.202;9.876;2023-10-13T01:18:14;17.15;;;15.82;;
19675;SDS011;39539;52.202;9.876;2023-10-13T01:20:41;18.13;;;16.52;;
19675;SDS011;39539;52.202;9.876;2023-10-13T01:23:17;18.48;;;16.85;;
19675;SDS011;39539;52.202;9.876;2023-10-13T01:25:49;19.67;;;17.98;;
19675;SDS011;39539;52.202;9.876;2023-10-13T01:28:15;20.48;;;18.83;;
19675;SDS011;39539;52.202;9.876;2023-10-13T01:30:44;21.15;;;19.38;;
19675;SDS011;39539;52.202;9.876;2023-10-13T01:33:17;20.90;;;19.13;;
19675;SDS011;39539;52.202;9.876;2023-10-13T01:35:52;19.65;;;18.02;;
19675;SDS011;39539;52.202;9.876;2023-10-13T01:38:20;21.50;;;19.58;;
19675;SDS011;39539;52.202;9.876;2023-10-13T01:40:45;21.17;;;19.23;;
19675;SDS011;39539;52.202;9.876;2023-10-13T01:43:16;21.00;;;19.20;;
19675;SDS011;39539;52.202;9.876;2023-10-13T01:45:42;22.73;;;20.70;;
19675;SDS011;39539;52.202;9.876;2023-10-13T01:48:14;21.88;;;19.85;;
19675;SDS011;39539;52.202;9.876;2023-10-13T01:50:46;20.73;;;19.02;;
19675;SDS011;39539;52.202;9.876;2023-10-13T01:53:13;22.05;;;20.08;;
19675;SDS011;39539;52.202;9.876;2023-10-13T01:55:42;21.98;;;20.02;;
19675;SDS011;39539;52.202;9.876;2023-10-13T01:58:12;21.90;;;20.05;;
19675;SDS011;39539;52.202;9.876;2023-10-13T02:00:42;22.13;;;20.25;;
19675;SDS011;39539;52.202;9.876;2023-10-13T02:03:08;22.50;;;20.70;;
19675;SDS011;39539;52.202;9.876;2023-10-13T02:05:47;23.35;;;21.42;;
19675;SDS011;39539;52.202;9.876;2023-10-13T02:08:14;24.60;;;22.33;;
19675;SDS011;39539;52.202;9.876;2023-10-13T02:10:47;22.60;;;20.65;;
19675;SDS011;39539;52.202;9.876;2023-10-13T02:13:13;21.38;;;19.70;;
19675;SDS011;39539;52.202;9.876;2023-10-13T02:15:46;19.48;;;17.98;;
19675;SDS011;39539;52.202;9.876;2023-10-13T02:18:16;18.70;;;17.40;;
19675;SDS011;39539;52.202;9.876;2023-10-13T02:20:46;18.15;;;16.75;;
19675;SDS011;39539;52.202;9.876;2023-10-13T02:23:19;18.15;;;16.40;;
19675;SDS011;39539;52.202;9.876;2023-10-13T02:25:45;16.80;;;15.50;;
19675;SDS011;39539;52.202;9.876;2023-10-13T02:28:11;15.13;;;14.02;;
19675;SDS011;39539;52.202;9.876;2023-10-13T02:30:43;16.30;;;14.57;;
19675;SDS011;39539;52.202;9.876;2023-10-13T02:33:13;14.77;;;13.73;;
19675;SDS011;39539;52.202;9.876;2023-10-13T02:35:47;14.07;;;13.07;;
19675;SDS011;39539;52.202;9.876;2023-10-13T02:38:18;13.20;;;12.20;;
19675;SDS011;39539;52.202;9.876;2023-10-13T02:40:52;13.27;;;12.27;;
19675;SDS011;39539;52.202;9.876;2023-10-13T02:43:19;12.10;;;11.30;;
19675;SDS011;39539;52.202;9.876;2023-10-13T02:45:51;11.57;;;10.82;;
19675;SDS011;39539;52.202;9.876;2023-10-13T02:48:23;11.02;;;10.32;;
19675;SDS011;39539;52.202;9.876;2023-10-13T02:50:54;11.23;;;10.32;;
19675;SDS011;39539;52.202;9.876;2023-10-13T02:53:22;11.45;;;10.65;;
19675;SDS011;39539;52.202;9.876;2023-10-13T02:55:57;10.38;;;9.68;;
19675;SDS011;39539;52.202;9.876;2023-10-13T02:58:30;10.27;;;9.57;;
19675;SDS011;39539;52.202;9.876;2023-10-13T03:01:10;9.93;;;9.07;;
19675;SDS011;39539;52.202;9.876;2023-10-13T03:03:48;9.75;;;9.05;;
19675;SDS011;39539;52.202;9.876;2023-10-13T03:06:16;9.45;;;8.75;;
19675;SDS011;39539;52.202;9.876;2023-10-13T03:08:46;8.88;;;8.07;;
19675;SDS011;39539;52.202;9.876;2023-10-13T03:11:11;8.50;;;7.90;;
19675;SDS011;39539;52.202;9.876;2023-10-13T03:13:38;8.88;;;8.18;;
19675;SDS011;39539;52.202;9.876;2023-10-13T03:16:14;8.80;;;8.18;;
19675;SDS011;39539;52.202;9.876;2023-10-13T03:18:45;8.95;;;8.13;;
19675;SDS011;39539;52.202;9.876;2023-10-13T03:21:19;7.90;;;7.20;;
19675;SDS011;39539;52.202;9.876;2023-10-13T03:23:57;8.45;;;7.85;;
19675;SDS011;39539;52.202;9.876;2023-10-13T03:26:29;8.80;;;8.15;;
19675;SDS011;39539;52.202;9.876;2023-10-13T03:28:59;8.70;;;8.00;;
19675;SDS011;39539;52.202;9.876;2023-10-13T03:31:27;8.75;;;8.05;;
19675;SDS011;39539;52.202;9.876;2023-10-13T03:33:54;8.85;;;8.15;;
19675;SDS011;39539;52.202;9.876;2023-10-13T03:36:25;9.43;;;8.70;;
19675;SDS011;39539;52.202;9.876;2023-10-13T03:39:10;8.73;;;8.00;;
19675;SDS011;39539;52.202;9.876;2023-10-13T03:41:36;8.95;;;8.30;;
19675;SDS011;39539;52.202;9.876;2023-10-13T03:44:04;9.90;;;9.02;;
19675;SDS011;39539;52.202;9.876;2023-10-13T03:46:38;9.40;;;8.52;;
19675;SDS011;39539;52.202;9.876;2023-10-13T03:49:06;9.52;;;8.82;;
19675;SDS011;39539;52.202;9.876;2023-10-13T03:51:33;10.50;;;9.48;;
19675;SDS011;39539;52.202;9.876;2023-10-13T03:54:01;10.20;;;9.48;;
19675;SDS011;39539;52.202;9.876;2023-10-13T03:56:32;10.60;;;9.85;;
19675;SDS011;39539;52.202;9.876;2023-10-13T03:59:03;10.60;;;9.90;;
19675;SDS011;39539;52.202;9.876;2023-10-13T04:01:33;10.02;;;9.32;;
19675;SDS011;39539;52.202;9.876;2023-10-13T04:04:08;9.70;;;8.80;;
19675;SDS011;39539;52.202;9.876;2023-10-13T04:06:36;10.50;;;9.60;;
19675;SDS011;39539;52.202;9.876;2023-10-13T04:09:14;11.02;;;10.23;;
19675;SDS011;39539;52.202;9.876;2023-10-13T04:12:01;10.50;;;9.70;;
19675;SDS011;39539;52.202;9.876;2023-10-13T04:14:33;10.30;;;9.60;;
19675;SDS011;39539;52.202;9.876;2023-10-13T04:17:17;10.20;;;9.40;;
19675;SDS011;39539;52.202;9.876;2023-10-13T04:19:51;9.95;;;9.15;;
19675;SDS011;39539;52.202;9.876;2023-10-13T04:25:13;10.48;;;9.77;;
19675;SDS011;39539;52.202;9.876;2023-10-13T04:27:57;9.82;;;9.13;;
19675;SDS011;39539;52.202;9.876;2023-10-13T04:30:45;10.10;;;9.23;;
19675;SDS011;39539;52.202;9.876;2023-10-13T04:33:21;9.70;;;8.93;;
19675;SDS011;39539;52.202;9.876;2023-10-13T04:38:46;9.85;;;9.05;;
19675;SDS011;39539;52.202;9.876;2023-10-13T04:41:30;8.48;;;7.93;;
19675;SDS011;39539;52.202;9.876;2023-10-13T04:44:04;9.23;;;8.52;;
19675;SDS011;39539;52.202;9.876;2023-10-13T04:46:50;9.00;;;8.30;;
19675;SDS011;39539;52.202;9.876;2023-10-13T04:49:16;9.35;;;8.45;;
19675;SDS011;39539;52.202;9.876;2023-10-13T04:51:57;8.88;;;8.10;;
19675;SDS011;39539;52.202;9.876;2023-10-13T04:54:27;8.57;;;7.97;;
19675;SDS011;39539;52.202;9.876;2023-10-13T04:57:16;9.25;;;8.52;;
19675;SDS011;39539;52.202;9.876;2023-10-13T05:00:04;9.18;;;8.45;;
19675;SDS011;39539;52.202;9.876;2023-10-13T05:02:40;9.00;;;8.40;;
19675;SDS011;39539;52.202;9.876;2023-10-13T05:05:10;10.15;;;9.35;;
19675;SDS011;39539;52.202;9.876;2023-10-13T05:07:46;9.38;;;8.68;;
19675;SDS011;39539;52.202;9.876;2023-10-13T05:10:30;9.55;;;8.85;;
19675;SDS011;39539;52.202;9.876;2023-10-13T05:13:15;9.88;;;9.05;;
19675;SDS011;39539;52.202;9.876;2023-10-13T05:15:59;9.05;;;8.35;;
19675;SDS011;39539;52.202;9.876;2023-10-13T05:18:43;9.80;;;9.10;;
19675;SDS011;39539;52.202;9.876;2023-10-13T05:21:28;9.50;;;8.70;;
19675;SDS011;39539;52.202;9.876;2023-10-13T05:24:12;9.82;;;9.13;;
19675;SDS011;39539;52.202;9.876;2023-10-13T05:26:57;9.57;;;8.73;;
19675;SDS011;39539;52.202;9.876;2023-10-13T05:29:45;9.90;;;9.23;;
19675;SDS011;39539;52.202;9.876;2023-10-13T05:32:30;10.40;;;9.50;;
19675;SDS011;39539;52.202;9.876;2023-10-13T05:35:15;11.18;;;10.38;;
19675;SDS011;39539;52.202;9.876;2023-10-13T05:38:00;11.70;;;10.90;;
19675;SDS011;39539;52.202;9.876;2023-10-13T05:40:51;10.23;;;9.52;;
19675;SDS011;39539;52.202;9.876;2023-10-13T05:43:35;10.73;;;9.70;;
19675;SDS011;39539;52.202;9.876;2023-10-13T05:46:20;9.93;;;9.02;;
19675;SDS011;39539;52.202;9.876;2023-10-13T05:48:52;9.63;;;9.02;;
19675;SDS011;39539;52.202;9.876;2023-10-13T05:51:24;9.98;;;9.18;;
19675;SDS011;39539;52.202;9.876;2023-10-13T05:54:05;9.82;;;9.00;;
19675;SDS011;39539;52.202;9.876;2023-10-13T05:56:49;11.38;;;9.27;;
19675;SDS011;39539;52.202;9.876;2023-10-13T05:59:35;10.02;;;9.23;;
19675;SDS011;39539;52.202;9.876;2023-10-13T06:02:21;9.85;;;9.15;;
19675;SDS011;39539;52.202;9.876;2023-10-13T06:05:07;9.05;;;8.40;;
19675;SDS011;39539;52.202;9.876;2023-10-13T06:07:52;9.43;;;8.60;;
19675;SDS011;39539;52.202;9.876;2023-10-13T06:10:38;9.20;;;8.50;;
19675;SDS011;39539;52.202;9.876;2023-10-13T06:13:23;9.85;;;9.05;;
19675;SDS011;39539;52.202;9.876;2023-10-13T06:16:08;9.07;;;8.48;;
19675;SDS011;39539;52.202;9.876;2023-10-13T06:18:52;9.07;;;8.27;;
19675;SDS011;39539;52.202;9.876;2023-10-13T06:21:36;9.00;;;8.18;;
19675;SDS011;39539;52.202;9.876;2023-10-13T06:24:21;9.75;;;9.00;;
19675;SDS011;39539;52.202;9.876;2023-10-13T06:27:05;10.48;;;9.60;;
19675;SDS011;39539;52.202;9.876;2023-10-13T06:29:49;10.75;;;8.48;;
19675;SDS011;39539;52.202;9.876;2023-10-13T06:32:15;10.00;;;9.10;;
19675;SDS011;39539;52.202;9.876;2023-10-13T06:34:44;10.43;;;9.55;;
19675;SDS011;39539;52.202;9.876;2023-10-13T06:37:19;11.07;;;10.07;;
19675;SDS011;39539;52.202;9.876;2023-10-13T06:40:10;10.75;;;9.85;;
19675;SDS011;39539;52.202;9.876;2023-10-13T06:42:49;10.35;;;9.57;;
19675;SDS011;39539;52.202;9.876;2023-10-13T06:45:15;9.90;;;9.20;;
19675;SDS011;39539;52.202;9.876;2023-10-13T06:47:42;10.32;;;9.43;;
19675;SDS011;39539;52.202;9.876;2023-10-13T06:50:08;11.10;;;10.02;;
19675;SDS011;39539;52.202;9.876;2023-10-13T06:52:41;9.98;;;9.18;;
19675;SDS011;39539;52.202;9.876;2023-10-13T06:55:12;10.68;;;9.85;;
19675;SDS011;39539;52.202;9.876;2023-10-13T06:57:44;9.32;;;8.63;;
19675;SDS011;39539;52.202;9.876;2023-10-13T07:00:13;9.98;;;9.05;;
19675;SDS011;39539;52.202;9.876;2023-10-13T07:02:46;11.07;;;10.18;;
19675;SDS011;39539;52.202;9.876;2023-10-13T07:05:12;10.15;;;9.25;;
19675;SDS011;39539;52.202;9.876;2023-10-13T07:07:44;9.80;;;8.90;;
19675;SDS011;39539;52.202;9.876;2023-10-13T07:10:12;9.38;;;8.68;;
19675;SDS011;39539;52.202;9.876;2023-10-13T07:12:41;9.88;;;9.00;;
19675;SDS011;39539;52.202;9.876;2023-10-13T07:15:11;10.13;;;9.32;;
19675;SDS011;39539;52.202;9.876;2023-10-13T07:17:46;9.68;;;8.77;;
19675;SDS011;39539;52.202;9.876;2023-10-13T07:20:24;9.35;;;8.65;;
19675;SDS011;39539;52.202;9.876;2023-10-13T07:22:58;9.48;;;8.68;;
19675;SDS011;39539;52.202;9.876;2023-10-13T07:25:34;10.38;;;8.70;;
19675;SDS011;39539;52.202;9.876;2023-10-13T07:28:03;10.38;;;8.93;;
19675;SDS011;39539;52.202;9.876;2023-10-13T07:30:35;9.13;;;8.43;;
19675;SDS011;39539;52.202;9.876;2023-10-13T07:33:22;8.90;;;8.20;;
19675;SDS011;39539;52.202;9.876;2023-10-13T07:35:59;8.43;;;7.82;;
19675;SDS011;39539;52.202;9.876;2023-10-13T07:38:31;8.77;;;8.07;;
19675;SDS011;39539;52.202;9.876;2023-10-13T07:41:02;8.70;;;7.90;;
19675;SDS011;39539;52.202;9.876;2023-10-13T07:43:35;8.68;;;7.82;;
19675;SDS011;39539;52.202;9.876;2023-10-13T07:46:04;8.02;;;7.43;;
19675;SDS011;39539;52.202;9.876;2023-10-13T07:48:38;9.00;;;8.20;;
19675;SDS011;39539;52.202;9.876;2023-10-13T07:51:06;7.88;;;7.18;;
19675;SDS011;39539;52.202;9.876;2023-10-13T07:53:43;8.30;;;7.50;;
19675;SDS011;39539;52.202;9.876;2023-10-13T07:56:14;7.72;;;7.03;;
19675;SDS011;39539;52.202;9.876;2023-10-13T07:58:52;7.75;;;7.20;;
19675;SDS011;39539;52.202;9.876;2023-10-13T08:01:21;7.45;;;6.85;;
19675;SDS011;39539;52.202;9.876;2023-10-13T08:03:47;7.70;;;7.10;;
19675;SDS011;39539;52.202;9.876;2023-10-13T08:06:22;7.30;;;6.50;;
19675;SDS011;39539;52.202;9.876;2023-10-13T08:08:53;7.20;;;6.30;;
19675;SDS011;39539;52.202;9.876;2023-10-13T08:11:19;6.28;;;5.82;;
19675;SDS011;39539;52.202;9.876;2023-10-13T08:13:48;6.85;;;6.25;;
19675;SDS011;39539;52.202;9.876;2023-10-13T08:16:22;6.30;;;5.90;;
19675;SDS011;39539;52.202;9.876;2023-10-13T08:18:48;5.55;;;5.15;;
19675;SDS011;39539;52.202;9.876;2023-10-13T08:21:17;5.85;;;5.18;;
19675;SDS011;39539;52.202;9.876;2023-10-13T08:23:49;6.68;;;5.00;;
19675;SDS011;39539;52.202;9.876;2023-10-13T08:26:23;6.85;;;5.55;;
19675;SDS011;39539;52.202;9.876;2023-10-13T08:28:56;5.57;;;5.03;;
19675;SDS011;39539;52.202;9.876;2023-10-13T08:31:43;4.82;;;4.38;;
19675;SDS011;39539;52.202;9.876;2023-10-13T08:34:31;4.93;;;4.53;;
19675;SDS011;39539;52.202;9.876;2023-10-13T08:37:09;4.35;;;4.03;;
19675;SDS011;39539;52.202;9.876;2023-10-13T08:39:45;4.93;;;4.50;;
19675;SDS011;39539;52.202;9.876;2023-10-13T08:42:35;4.15;;;3.85;;
19675;SDS011;39539;52.202;9.876;2023-10-13T08:45:14;4.30;;;3.90;;
19675;SDS011;39539;52.202;9.876;2023-10-13T08:47:53;4.60;;;4.20;;
19675;SDS011;39539;52.202;9.876;2023-10-13T08:50:37;5.28;;;3.33;;
19675;SDS011;39539;52.202;9.876;2023-10-13T08:53:21;3.83;;;3.55;;
19675;SDS011;39539;52.202;9.876;2023-10-13T08:56:09;4.20;;;3.90;;
19675;SDS011;39539;52.202;9.876;2023-10-13T08:58:39;4.10;;;3.70;;
19675;SDS011;39539;52.202;9.876;2023-10-13T09:01:21;3.97;;;3.67;;
19675;SDS011;39539;52.202;9.876;2023-10-13T09:04:00;3.83;;;3.55;;
19675;SDS011;39539;52.202;9.876;2023-10-13T09:09:45;3.80;;;3.50;;
19675;SDS011;39539;52.202;9.876;2023-10-13T09:12:12;3.78;;;3.47;;
19675;SDS011;39539;52.202;9.876;2023-10-13T09:14:53;4.65;;;3.65;;
19675;SDS011;39539;52.202;9.876;2023-10-13T09:17:23;3.42;;;3.15;;
19675;SDS011;39539;52.202;9.876;2023-10-13T09:19:59;4.13;;;3.20;;
19675;SDS011;39539;52.202;9.876;2023-10-13T09:22:53;4.30;;;2.97;;
19675;SDS011;39539;52.202;9.876;2023-10-13T09:25:27;5.45;;;3.53;;
19675;SDS011;39539;52.202;9.876;2023-10-13T09:27:58;3.53;;;3.22;;
19675;SDS011;39539;52.202;9.876;2023-10-13T09:30:27;4.30;;;3.63;;
19675;SDS011;39539;52.202;9.876;2023-10-13T09:33:05;4.28;;;3.30;;
19675;SDS011;39539;52.202;9.876;2023-10-13T09:35:33;3.63;;;3.33;;
19675;SDS011;39539;52.202;9.876;2023-10-13T09:38:02;4.70;;;3.65;;
19675;SDS011;39539;52.202;9.876;2023-10-13T09:40:29;4.45;;;3.50;;
19675;SDS011;39539;52.202;9.876;2023-10-13T09:42:58;4.18;;;3.10;;
19675;SDS011;39539;52.202;9.876;2023-10-13T09:45:33;4.03;;;2.88;;
19675;SDS011;39539;52.202;9.876;2023-10-13T09:51:14;4.05;;;2.67;;
19675;SDS011;39539;52.202;9.876;2023-10-13T09:53:52;5.50;;;3.35;;
19675;SDS011;39539;52.202;9.876;2023-10-13T09:56:28;3.63;;;3.13;;
19675;SDS011;39539;52.202;9.876;2023-10-13T10:01:41;6.45;;;3.20;;
19675;SDS011;39539;52.202;9.876;2023-10-13T10:04:22;4.32;;;3.45;;
19675;SDS011;39539;52.202;9.876;2023-10-13T10:06:57;5.15;;;3.60;;
19675;SDS011;39539;52.202;9.876;2023-10-13T10:09:27;4.80;;;3.78;;
19675;SDS011;39539;52.202;9.876;2023-10-13T10:17:47;6.03;;;3.45;;
19675;SDS011;39539;52.202;9.876;2023-10-13T10:20:15;6.47;;;3.55;;
19675;SDS011;39539;52.202;9.876;2023-10-13T10:22:54;7.57;;;4.20;;
19675;SDS011;39539;52.202;9.876;2023-10-13T10:25:28;5.45;;;3.60;;
19675;SDS011;39539;52.202;9.876;2023-10-13T10:28:01;8.32;;;3.83;;
19675;SDS011;39539;52.202;9.876;2023-10-13T10:33:57;5.95;;;3.92;;
19675;SDS011;39539;52.202;9.876;2023-10-13T10:36:30;5.88;;;4.53;;
19675;SDS011;39539;52.202;9.876;2023-10-13T10:38:57;7.72;;;4.00;;
19675;SDS011;39539;52.202;9.876;2023-10-13T10:41:29;9.18;;;4.22;;
19675;SDS011;39539;52.202;9.876;2023-10-13T10:47:12;7.20;;;4.57;;
19675;SDS011;39539;52.202;9.876;2023-10-13T10:50:00;7.55;;;4.47;;
19675;SDS011;39539;52.202;9.876;2023-10-13T10:52:32;8.65;;;4.38;;
19675;SDS011;39539;52.202;9.876;2023-10-13T10:55:03;7.60;;;4.25;;
19675;SDS011;39539;52.202;9.876;2023-10-13T10:57:38;9.73;;;4.60;;
19675;SDS011;39539;52.202;9.876;2023-10-13T11:00:17;7.35;;;4.55;;
19675;SDS011;39539;52.202;9.876;2023-10-13T11:02:53;5.25;;;4.20;;
19675;SDS011;39539;52.202;9.876;2023-10-13T11:05:22;6.15;;;4.53;;
19675;SDS011;39539;52.202;9.876;2023-10-13T11:07:49;9.80;;;4.68;;
19675;SDS011;39539;52.202;9.876;2023-10-13T11:10:16;6.28;;;4.20;;
19675;SDS011;39539;52.202;9.876;2023-10-13T11:13:02;6.43;;;4.68;;
19675;SDS011;39539;52.202;9.876;2023-10-13T11:15:46;5.55;;;4.35;;
19675;SDS011;39539;52.202;9.876;2023-10-13T11:18:14;8.57;;;4.45;;
19675;SDS011;39539;52.202;9.876;2023-10-13T11:20:47;7.13;;;5.07;;
19675;SDS011;39539;52.202;9.876;2023-10-13T11:23:19;7.97;;;5.05;;
19675;SDS011;39539;52.202;9.876;2023-10-13T11:25:55;7.10;;;4.85;;
19675;SDS011;39539;52.202;9.876;2023-10-13T11:28:22;8.20;;;5.25;;
19675;SDS011;39539;52.202;9.876;2023-10-13T11:30:56;7.80;;;5.13;;
19675;SDS011;39539;52.202;9.876;2023-10-13T11:33:29;7.55;;;5.13;;
19675;SDS011;39539;52.202;9.876;2023-10-13T11:36:01;8.77;;;4.93;;
19675;SDS011;39539;52.202;9.876;2023-10-13T11:38:31;7.95;;;5.13;;
19675;SDS011;39539;52.202;9.876;2023-10-13T11:41:13;7.75;;;5.25;;
19675;SDS011;39539;52.202;9.876;2023-10-13T11:43:52;10.30;;;5.03;;
19675;SDS011;39539;52.202;9.876;2023-10-13T11:46:40;8.35;;;5.15;;
19675;SDS011;39539;52.202;9.876;2023-10-13T11:49:26;7.45;;;5.18;;
19675;SDS011;39539;52.202;9.876;2023-10-13T11:51:52;8.25;;;5.07;;
19675;SDS011;39539;52.202;9.876;2023-10-13T11:54:18;7.05;;;5.53;;
19675;SDS011;39539;52.202;9.876;2023-10-13T11:56:52;11.60;;;5.60;;
19675;SDS011;39539;52.202;9.876;2023-10-13T11:59:18;10.60;;;6.18;;
19675;SDS011;39539;52.202;9.876;2023-10-13T12:04:28;12.30;;;5.97;;
19675;SDS011;39539;52.202;9.876;2023-10-13T12:07:11;7.68;;;5.50;;
19675;SDS011;39539;52.202;9.876;2023-10-13T12:09:45;7.65;;;5.32;;
19675;SDS011;39539;52.202;9.876;2023-10-13T12:12:28;10.07;;;5.35;;
19675;SDS011;39539;52.202;9.876;2023-10-13T12:15:10;12.82;;;6.00;;
19675;SDS011;39539;52.202;9.876;2023-10-13T12:17:51;10.05;;;5.85;;
19675;SDS011;39539;52.202;9.876;2023-10-13T12:20:18;6.43;;;5.18;;
19675;SDS011;39539;52.202;9.876;2023-10-13T12:22:52;8.98;;;5.85;;
19675;SDS011;39539;52.202;9.876;2023-10-13T12:25:26;10.98;;;5.78;;
19675;SDS011;39539;52.202;9.876;2023-10-13T12:27:58;11.05;;;6.40;;
19675;SDS011;39539;52.202;9.876;2023-10-13T12:30:31;9.05;;;5.55;;
19675;SDS011;39539;52.202;9.876;2023-10-13T12:33:22;9.90;;;5.68;;
19675;SDS011;39539;52.202;9.876;2023-10-13T12:38:42;11.32;;;5.35;;
19675;SDS011;39539;52.202;9.876;2023-10-13T12:41:17;8.55;;;5.13;;
19675;SDS011;39539;52.202;9.876;2023-10-13T12:44:03;8.70;;;5.43;;
19675;SDS011;39539;52.202;9.876;2023-10-13T12:46:49;9.70;;;5.85;;
19675;SDS011;39539;52.202;9.876;2023-10-13T12:49:34;10.77;;;5.85;;
19675;SDS011;39539;52.202;9.876;2023-10-13T12:52:17;9.85;;;5.78;;
19675;SDS011;39539;52.202;9.876;2023-10-13T12:54:53;9.50;;;5.50;;
19675;SDS011;39539;52.202;9.876;2023-10-13T12:57:22;10.82;;;5.60;;
19675;SDS011;39539;52.202;9.876;2023-10-13T12:59:51;9.65;;;5.57;;
19675;SDS011;39539;52.202;9.876;2023-10-13T13:02:21;7.53;;;5.18;;
19675;SDS011;39539;52.202;9.876;2023-10-13T13:04:51;9.70;;;5.82;;
19675;SDS011;39539;52.202;9.876;2023-10-13T13:07:22;10.07;;;5.30;;
19675;SDS011;39539;52.202;9.876;2023-10-13T13:09:53;15.48;;;5.95;;
19675;SDS011;39539;52.202;9.876;2023-10-13T13:12:26;9.05;;;5.22;;
19675;SDS011;39539;52.202;9.876;2023-10-13T13:14:54;12.68;;;5.72;;
19675;SDS011;39539;52.202;9.876;2023-10-13T13:17:21;7.15;;;5.90;;
19675;SDS011;39539;52.202;9.876;2023-10-13T13:19:47;9.65;;;5.80;;
19675;SDS011;39539;52.202;9.876;2023-10-13T13:22:12;14.00;;;6.40;;
19675;SDS011;39539;52.202;9.876;2023-10-13T13:24:38;10.25;;;5.88;;
19675;SDS011;39539;52.202;9.876;2023-10-13T13:27:18;7.93;;;6.07;;
19675;SDS011;39539;52.202;9.876;2023-10-13T13:29:47;8.75;;;5.80;;
19675;SDS011;39539;52.202;9.876;2023-10-13T13:32:13;9.48;;;5.60;;
19675;SDS011;39539;52.202;9.876;2023-10-13T13:34:50;9.45;;;5.70;;
19675;SDS011;39539;52.202;9.876;2023-10-13T13:37:34;8.95;;;6.10;;
19675;SDS011;39539;52.202;9.876;2023-10-13T13:40:04;8.25;;;5.35;;
19675;SDS011;39539;52.202;9.876;2023-10-13T13:42:40;11.57;;;5.93;;
19675;SDS011;39539;52.202;9.876;2023-10-13T13:45:12;10.38;;;6.40;;
19675;SDS011;39539;52.202;9.876;2023-10-13T13:47:46;11.68;;;6.20;;
19675;SDS011;39539;52.202;9.876;2023-10-13T13:50:18;7.72;;;5.88;;
19675;SDS011;39539;52.202;9.876;2023-10-13T13:52:49;8.60;;;5.95;;
19675;SDS011;39539;52.202;9.876;2023-10-13T13:55:14;11.27;;;6.45;;
19675;SDS011;39539;52.202;9.876;2023-10-13T13:57:43;9.23;;;5.68;;
19675;SDS011;39539;52.202;9.876;2023-10-13T14:00:11;9.55;;;6.00;;
19675;SDS011;39539;52.202;9.876;2023-10-13T14:02:43;8.95;;;6.00;;
19675;SDS011;39539;52.202;9.876;2023-10-13T14:05:21;7.28;;;5.68;;
19675;SDS011;39539;52.202;9.876;2023-10-13T14:07:46;12.23;;;6.07;;
19675;SDS011;39539;52.202;9.876;2023-10-13T14:10:16;8.40;;;5.93;;
19675;SDS011;39539;52.202;9.876;2023-10-13T14:12:57;10.10;;;5.78;;
19675;SDS011;39539;52.202;9.876;2023-10-13T14:15:32;7.65;;;6.10;;
19675;SDS011;39539;52.202;9.876;2023-10-13T14:18:06;12.63;;;6.30;;
19675;SDS011;39539;52.202;9.876;2023-10-13T14:20:32;12.18;;;6.22;;
19675;SDS011;39539;52.202;9.876;2023-10-13T14:23:06;12.63;;;5.93;;
19675;SDS011;39539;52.202;9.876;2023-10-13T14:25:33;11.20;;;6.90;;
19675;SDS011;39539;52.202;9.876;2023-10-13T14:28:04;8.18;;;6.05;;
19675;SDS011;39539;52.202;9.876;2023-10-13T14:30:33;9.27;;;5.75;;
19675;SDS011;39539;52.202;9.876;2023-10-13T14:32:58;7.72;;;5.70;;
19675;SDS011;39539;52.202;9.876;2023-10-13T14:35:24;8.85;;;5.80;;
19675;SDS011;39539;52.202;9.876;2023-10-13T14:37:51;9.27;;;5.47;;
19675;SDS011;39539;52.202;9.876;2023-10-13T14:40:17;7.57;;;5.50;;
19675;SDS011;39539;52.202;9.876;2023-10-13T14:42:46;10.35;;;5.43;;
19675;SDS011;39539;52.202;9.876;2023-10-13T14:45:13;12.70;;;6.28;;
19675;SDS011;39539;52.202;9.876;2023-10-13T14:47:46;9.55;;;5.88;;
19675;SDS011;39539;52.202;9.876;2023-10-13T14:50:11;8.60;;;5.50;;
19675;SDS011;39539;52.202;9.876;2023-10-13T14:52:57;14.90;;;6.40;;
19675;SDS011;39539;52.202;9.876;2023-10-13T14:55:23;8.95;;;5.60;;
19675;SDS011;39539;52.202;9.876;2023-10-13T14:58:06;6.78;;;5.32;;
19675;SDS011;39539;52.202;9.876;2023-10-13T15:00:37;9.95;;;6.03;;
19675;SDS011;39539;52.202;9.876;2023-10-13T15:03:02;9.52;;;5.80;;
19675;SDS011;39539;52.202;9.876;2023-10-13T15:05:31;8.77;;;6.13;;
19675;SDS011;39539;52.202;9.876;2023-10-13T15:08:13;11.10;;;5.80;;
19675;SDS011;39539;52.202;9.876;2023-10-13T15:10:40;7.78;;;5.90;;
19675;SDS011;39539;52.202;9.876;2023-10-13T15:13:09;10.57;;;6.00;;
19675;SDS011;39539;52.202;9.876;2023-10-13T15:15:34;12.10;;;6.10;;
19675;SDS011;39539;52.202;9.876;2023-10-13T15:18:10;7.05;;;6.18;;
19675;SDS011;39539;52.202;9.876;2023-10-13T15:20:41;9.82;;;6.05;;
19675;SDS011;39539;52.202;9.876;2023-10-13T15:23:08;8.90;;;5.88;;
19675;SDS011;39539;52.202;9.876;2023-10-13T15:25:41;8.98;;;6.05;;
19675;SDS011;39539;52.202;9.876;2023-10-13T15:28:14;8.75;;;6.20;;
19675;SDS011;39539;52.202;9.876;2023-10-13T15:30:43;6.38;;;5.65;;
19675;SDS011;39539;52.202;9.876;2023-10-13T15:33:25;8.35;;;5.93;;
19675;SDS011;39539;52.202;9.876;2023-10-13T15:35:53;11.43;;;6.22;;
19675;SDS011;39539;52.202;9.876;2023-10-13T15:38:19;8.93;;;5.75;;
19675;SDS011;39539;52.202;9.876;2023-10-13T15:40:47;9.48;;;6.63;;
19675;SDS011;39539;52.202;9.876;2023-10-13T15:43:20;8.63;;;6.13;;
19675;SDS011;39539;52.202;9.876;2023-10-13T15:45:47;8.73;;;6.35;;
19675;SDS011;39539;52.202;9.876;2023-10-13T15:48:13;9.23;;;5.72;;
19675;SDS011;39539;52.202;9.876;2023-10-13T15:50:40;11.75;;;6.00;;
19675;SDS011;39539;52.202;9.876;2023-10-13T15:53:06;10.25;;;6.38;;